Share

Ashby, MN

9:27 AM CDT on April 23, 2014 (GMT -0500)
Elbow Lake (KY63) Elev 1204 ft | 45.99 °N, 95.99 °W | Change Station

Current weather conditions updated 14 minutes ago

Rain
Rain
40 °F
Feels Like 30 °F
N
23
Wind Variable Wind from SE
Gusts 26 mph
Sunrise 6:22 AM
Sunset 8:21 PM
Moon Waning Crescent

Today is forecast to be Much Cooler than yesterday. Rain.

Pressure 29.95 in
Visibility 4.0 miles
Clouds Scattered Clouds 3300 ft
Scattered Clouds 4800 ft
Overcast 6000 ft
Windchill 30 °F
Dew Point 38 °F
Humidity 91%
Rainfall 0.13 in
Snow Depth Not available.
UV 1 out of 16
Pollen 7.80 out of 12
Air Quality Not available.
Flu Activity Sporadic
METAR KY63 231413Z AUTO 13020G23KT 4SM RA SCT033 SCT048 OVC060 05/03 A2995 RMK AO2 P0003 T00450032

More Conditions Fewer Conditions

Pressure 29.95 in
Visibility 4.0 miles
Clouds Scattered Clouds 3300 ft
Scattered Clouds 4800 ft
Overcast 6000 ft
Windchill 30 °F
Dew Point 38 °F
Humidity 91%
Rainfall 0.13 in
Snow Depth Not available.
UV 1 out of 16
Pollen 7.80 out of 12
Air Quality Not available.
Flu Activity Sporadic
METAR KY63 231413Z AUTO 13020G23KT 4SM RA SCT033 SCT048 OVC060 05/03 A2995 RMK AO2 P0003 T00450032

More Conditions Fewer Conditions

10-Day Weather Forecast

Almanac

Astronomy

Apr. 23, 2014 Rise Set
Actual Time 6:22 AM CDT 8:21 PM CDT
Civil Twilight 5:50 AM CDT 8:53 PM CDT
Nautical Twilight 5:11 AM CDT 9:33 PM CDT
Astronomical Twilight 4:27 AM CDT 10:17 PM CDT
Moon 3:15 AM CDT 2:11 PM CDT
Length of Visible Light 15h 02m
Length of Day
13h 58m
Tomorrow will be 3m 0s longer.
Waning Crescent, 36% of the Moon is Illuminated
Today
Waning Crescent
Apr 29
New
May 6
First Quarter
May 14
Full
May 21
Last Quarter

Today's Extremes

State Highs State Lows

Community

  • spring flowers
    spring flowers
  • Earth Day Spectrum Ove' Blue
    Earth Day Spectrum Ove' Blue
  • BARN B&W
    BARN B&W
  • April Sunset
    April Sunset
  • Waiting..
    Waiting..

WunderPhotos

Upload Photos

1,704,296 photos uploaded!

Nearby

Snow Depth

Station Depth Elevation
No new snow has been reported.

Coastal Water Temperatures

Place Temperature
No Stations Reporting

Earthquake Activity

City Distance Mag. Time & Date
No recent earthquake activity has been reported nearby.
Minimum magnitude displayed is 2.5.

Nearby Weather Stations

Station Location Temp. Windchill Dew Point Humidity Wind Precip. Elev Updated Type
Gardonville Co-op Telephone Assn, Brandon, MN 39.9 °F 30 °F 35 °F 82% SE  at  23.0 mph 0.00 in / hr 1411 ft 9:27 AM CDT Rapid Fire
Hoffman MN, Hoffman, MN 40.6 °F 33 °F 39 °F 95% SE  at  13.6 mph 0.02 in / hr 1240 ft 9:25 AM CDT Normal

Show More Stations Show Fewer Stations

What do you think?

We're not finished. Please let us know what you like, what you don't like, and what you are still missing.